Time;durP1;ratioP1;P1;durP2;ratioP2;P2;SDS_P1;SDS_P2;PMS_P1;PMS_P2;Temp;Humidity;BMP_temperature;BMP_pressure;BME280_temperature;BME280_humidity;BME280_pressure;Samples;Min_cycle;Max_cycle;Signal;HPM_P1;HPM_P2
2022/09/25 00:02:12;;;;;;;9.43;6.53;;;;;;;;;;10266775;28;20044;-75
2022/09/25 00:07:13;;;;;;;11.77;6.75;;;;;;;;;;10267350;28;20073;-74
2022/09/25 00:12:13;;;;;;;7.90;5.38;;;;;;;;;;10266552;28;20680;-77
2022/09/25 00:17:13;;;;;;;9.20;4.68;;;;;;;;;;10266487;28;20110;-78
2022/09/25 00:22:13;;;;;;;9.93;6.03;;;;;;;;;;10265935;28;20553;-77
2022/09/25 00:27:14;;;;;;;9.88;6.20;;;;;;;;;;10266912;28;20034;-78
2022/09/25 00:32:14;;;;;;;11.48;5.97;;;;;;;;;;10265894;28;20107;-79
2022/09/25 00:37:14;;;;;;;10.32;5.05;;;;;;;;;;10266326;28;20477;-77
2022/09/25 00:42:18;;;;;;;7.43;5.23;;;;;;;;;;10265338;28;20026;-78
2022/09/25 00:47:21;;;;;;;5.82;4.57;;;;;;;;;;10265776;28;20269;-76
2022/09/25 00:52:22;;;;;;;8.90;4.95;;;;;;;;;;10265351;28;20035;-74
2022/09/25 00:57:25;;;;;;;9.93;4.68;;;;;;;;;;10243728;28;20034;-77
2022/09/25 01:02:27;;;;;;;7.78;5.22;;;;;;;;;;10261653;28;20516;-77
2022/09/25 01:07:28;;;;;;;10.25;5.85;;;;;;;;;;10263041;28;20025;-75
2022/09/25 01:12:28;;;;;;;7.15;4.88;;;;;;;;;;10264805;28;20045;-74
2022/09/25 01:17:34;;;;;;;6.30;4.38;;;;;;;;;;10264589;28;20488;-77
2022/09/25 01:23:01;;;;;;;4.95;4.28;;;;;;;;;;10264023;28;20030;-74
2022/09/25 01:28:07;;;;;;;9.65;4.68;;;;;;;;;;10263717;28;20556;-78
2022/09/25 01:33:13;;;;;;;6.28;4.55;;;;;;;;;;10263370;28;20867;-78
2022/09/25 01:38:23;;;;;;;6.97;5.00;;;;;;;;;;10263393;28;20173;-76
2022/09/25 01:43:26;;;;;;;7.47;4.47;;;;;;;;;;10260223;28;20054;-78
2022/09/25 01:48:29;;;;;;;7.38;4.35;;;;;;;;;;10263885;28;20038;-74
2022/09/25 01:53:34;;;;;;;9.48;5.47;;;;;;;;;;10241698;28;20078;-79
2022/09/25 01:58:40;;;;;;;6.95;4.95;;;;;;;;;;10264202;28;20597;-76
2022/09/25 02:04:02;;;;;;;8.65;5.30;;;;;;;;;;10283647;28;20140;-74
2022/09/25 02:09:06;;;;;;;9.48;5.90;;;;;;;;;;10260707;28;20504;-77
2022/09/25 02:14:09;;;;;;;6.32;4.55;;;;;;;;;;10288374;28;20025;-77
2022/09/25 02:24:48;;;;;;;10.82;4.93;;;;;;;;;;10289045;28;20035;-77
2022/09/25 02:29:48;;;;;;;7.95;4.82;;;;;;;;;;10270870;28;20073;-76
2022/09/25 02:34:48;;;;;;;8.48;5.32;;;;;;;;;;10270121;28;20572;-74
2022/09/25 02:39:51;;;;;;;6.63;4.80;;;;;;;;;;10270625;28;20030;-74
2022/09/25 02:45:05;;;;;;;6.93;5.20;;;;;;;;;;10270559;28;20051;-76
2022/09/25 02:50:12;;;;;;;7.75;4.90;;;;;;;;;;10267197;28;20497;-76
2022/09/25 02:55:28;;;;;;;5.60;4.13;;;;;;;;;;10269490;28;20061;-77
2022/09/25 03:00:28;;;;;;;7.50;5.15;;;;;;;;;;10269058;28;20547;-73
2022/09/25 03:05:29;;;;;;;8.63;5.03;;;;;;;;;;10283345;28;20034;-81
2022/09/25 03:10:31;;;;;;;7.35;5.10;;;;;;;;;;10261850;28;20027;-74
2022/09/25 03:15:31;;;;;;;8.38;4.65;;;;;;;;;;10263435;28;20033;-79
2022/09/25 03:20:31;;;;;;;6.70;4.90;;;;;;;;;;10261403;28;20029;-82
2022/09/25 03:25:32;;;;;;;11.48;5.05;;;;;;;;;;10259177;28;20027;-79
2022/09/25 03:30:32;;;;;;;7.18;4.32;;;;;;;;;;10262794;28;20050;-78
2022/09/25 03:35:32;;;;;;;6.75;4.45;;;;;;;;;;10261757;28;20408;-78
2022/09/25 03:40:33;;;;;;;6.75;4.85;;;;;;;;;;10259348;28;20117;-73
2022/09/25 03:45:33;;;;;;;8.48;4.57;;;;;;;;;;10260099;28;20027;-73
2022/09/25 03:50:33;;;;;;;7.50;4.45;;;;;;;;;;10259197;28;20054;-75
2022/09/25 04:00:44;;;;;;;7.10;4.95;;;;;;;;;;10353530;23;20069;-73
2022/09/25 04:05:45;;;;;;;8.23;4.18;;;;;;;;;;10262871;28;20045;-75
2022/09/25 04:10:45;;;;;;;9.98;4.82;;;;;;;;;;10264086;28;20041;-72
2022/09/25 04:15:45;;;;;;;7.18;4.88;;;;;;;;;;10265616;28;20042;-77
2022/09/25 04:20:46;;;;;;;6.68;4.85;;;;;;;;;;10265693;28;20801;-76
2022/09/25 04:25:46;;;;;;;10.48;5.13;;;;;;;;;;10265701;28;20038;-78
2022/09/25 04:30:46;;;;;;;8.85;5.32;;;;;;;;;;10265034;28;20050;-74
2022/09/25 04:35:46;;;;;;;6.90;5.50;;;;;;;;;;10265593;28;20033;-77
2022/09/25 04:40:47;;;;;;;6.68;5.07;;;;;;;;;;10264970;28;20508;-78
2022/09/25 04:45:47;;;;;;;10.67;4.87;;;;;;;;;;10262131;28;20126;-74
2022/09/25 04:50:48;;;;;;;9.80;5.22;;;;;;;;;;10257077;28;20927;-74
2022/09/25 04:55:48;;;;;;;7.03;4.97;;;;;;;;;;10264385;28;20372;-77
2022/09/25 05:00:48;;;;;;;7.00;4.35;;;;;;;;;;10240700;28;20501;-74
2022/09/25 05:05:49;;;;;;;10.43;5.22;;;;;;;;;;10241156;28;20024;-78
2022/09/25 05:10:49;;;;;;;8.98;4.10;;;;;;;;;;10240918;28;20079;-74
2022/09/25 05:15:49;;;;;;;8.05;5.43;;;;;;;;;;10238568;28;20027;-78
2022/09/25 05:20:51;;;;;;;10.10;5.82;;;;;;;;;;10238868;29;20035;-74
2022/09/25 05:25:52;;;;;;;18.23;6.47;;;;;;;;;;10237044;28;20106;-74
2022/09/25 05:30:52;;;;;;;20.33;6.30;;;;;;;;;;10240123;28;20027;-78
2022/09/25 05:35:52;;;;;;;11.70;5.65;;;;;;;;;;10240821;28;20024;-74
2022/09/25 05:40:52;;;;;;;7.25;4.47;;;;;;;;;;10239775;28;20110;-79
2022/09/25 05:45:53;;;;;;;13.13;4.93;;;;;;;;;;10240464;28;20030;-75
2022/09/25 05:50:54;;;;;;;11.45;5.07;;;;;;;;;;10239870;28;20035;-74
2022/09/25 05:55:57;;;;;;;8.57;5.40;;;;;;;;;;10239023;28;20482;-79
2022/09/25 06:01:02;;;;;;;9.82;6.07;;;;;;;;;;10233000;28;20047;-78
2022/09/25 06:06:02;;;;;;;14.10;7.32;;;;;;;;;;10234414;29;20019;-79
2022/09/25 06:11:03;;;;;;;11.47;6.50;;;;;;;;;;10240420;29;20054;-78
2022/09/25 06:16:04;;;;;;;12.88;7.35;;;;;;;;;;10238997;29;20027;-74
2022/09/25 06:21:04;;;;;;;14.43;7.10;;;;;;;;;;10236938;28;20490;-79
2022/09/25 06:26:05;;;;;;;17.10;9.23;;;;;;;;;;10239104;28;20476;-78
2022/09/25 06:31:06;;;;;;;14.50;8.55;;;;;;;;;;10239996;28;20023;-78
2022/09/25 06:36:06;;;;;;;11.20;6.40;;;;;;;;;;10237756;28;20015;-81
2022/09/25 06:41:06;;;;;;;12.75;7.10;;;;;;;;;;10235814;28;20117;-78
2022/09/25 06:46:07;;;;;;;13.13;7.82;;;;;;;;;;10233214;29;20405;-75
2022/09/25 06:51:07;;;;;;;12.18;6.20;;;;;;;;;;10239049;28;20482;-78
2022/09/25 06:56:08;;;;;;;17.20;7.90;;;;;;;;;;10233564;28;20486;-79
2022/09/25 07:01:10;;;;;;;8.70;5.82;;;;;;;;;;10264625;28;20074;-78
2022/09/25 07:06:18;;;;;;;10.57;5.88;;;;;;;;;;10260163;28;20086;-80
2022/09/25 07:11:20;;;;;;;14.95;5.60;;;;;;;;;;10265843;28;20023;-73
2022/09/25 07:16:21;;;;;;;7.40;5.28;;;;;;;;;;10264621;28;20026;-79
2022/09/25 07:21:26;;;;;;;10.20;4.72;;;;;;;;;;10265639;28;20122;-73
2022/09/25 07:26:28;;;;;;;9.60;6.03;;;;;;;;;;10277379;28;20023;-77
2022/09/25 07:31:30;;;;;;;11.63;6.25;;;;;;;;;;10266193;28;20023;-75
2022/09/25 07:36:30;;;;;;;14.90;5.57;;;;;;;;;;10267484;28;20135;-75
2022/09/25 07:41:31;;;;;;;16.38;7.20;;;;;;;;;;10285151;28;20527;-75
2022/09/25 07:46:31;;;;;;;14.23;8.30;;;;;;;;;;10267157;28;20017;-74
2022/09/25 07:51:31;;;;;;;12.88;6.70;;;;;;;;;;10264413;28;20114;-75
2022/09/25 07:56:33;;;;;;;12.35;6.05;;;;;;;;;;10263010;28;20039;-79
2022/09/25 08:01:33;;;;;;;9.25;5.32;;;;;;;;;;10263510;28;20026;-73
2022/09/25 08:06:34;;;;;;;19.65;5.47;;;;;;;;;;10264048;28;20031;-75
2022/09/25 08:11:35;;;;;;;10.70;5.47;;;;;;;;;;10281143;28;20007;-74
2022/09/25 08:16:35;;;;;;;7.78;5.68;;;;;;;;;;10267266;28;20011;-77
2022/09/25 08:21:36;;;;;;;9.60;5.63;;;;;;;;;;10283689;28;20030;-77
2022/09/25 08:26:36;;;;;;;8.57;4.80;;;;;;;;;;10265438;28;20019;-79
2022/09/25 08:31:36;;;;;;;8.90;5.20;;;;;;;;;;10265906;28;20033;-75
2022/09/25 08:36:36;;;;;;;11.43;5.63;;;;;;;;;;10265760;28;20129;-74
2022/09/25 08:41:44;;;;;;;11.43;5.60;;;;;;;;;;10282350;28;20567;-74
2022/09/25 08:52:07;;;;;;;13.63;7.03;;;;;;;;;;10268561;28;20030;-74
2022/09/25 08:57:39;;;;;;;8.00;5.45;;;;;;;;;;10262664;28;20617;-74
2022/09/25 09:02:40;;;;;;;10.60;5.50;;;;;;;;;;10254009;28;20458;-74
2022/09/25 09:07:45;;;;;;;11.75;4.35;;;;;;;;;;10264299;28;20022;-79
2022/09/25 09:12:50;;;;;;;5.22;3.53;;;;;;;;;;10264613;28;20018;-74
2022/09/25 09:17:51;;;;;;;11.57;4.57;;;;;;;;;;10280002;28;20485;-74
2022/09/25 09:22:53;;;;;;;8.63;4.70;;;;;;;;;;10263011;28;20059;-73
2022/09/25 09:27:59;;;;;;;5.32;3.67;;;;;;;;;;10262651;28;20108;-74
2022/09/25 09:33:03;;;;;;;6.80;4.25;;;;;;;;;;10279655;28;20476;-74
2022/09/25 09:38:15;;;;;;;5.63;3.10;;;;;;;;;;10263690;28;20448;-74
2022/09/25 09:43:18;;;;;;;5.95;3.78;;;;;;;;;;10263290;28;20379;-74
2022/09/25 09:48:19;;;;;;;4.57;2.72;;;;;;;;;;10280805;28;20469;-74
2022/09/25 09:53:24;;;;;;;6.65;2.60;;;;;;;;;;10280228;28;20031;-74
2022/09/25 09:58:46;;;;;;;3.72;2.35;;;;;;;;;;10261773;28;20035;-73
2022/09/25 10:03:47;;;;;;;4.28;3.10;;;;;;;;;;10262651;28;20043;-77
2022/09/25 10:08:48;;;;;;;5.55;3.00;;;;;;;;;;10281378;28;20074;-77
2022/09/25 10:13:48;;;;;;;3.97;2.78;;;;;;;;;;10262628;28;20085;-73
2022/09/25 10:19:04;;;;;;;12.48;3.80;;;;;;;;;;10279788;28;20101;-79
2022/09/25 10:24:05;;;;;;;11.15;3.40;;;;;;;;;;10277753;28;20093;-79
2022/09/25 10:29:09;;;;;;;6.07;3.08;;;;;;;;;;10263015;28;20018;-74
2022/09/25 10:34:12;;;;;;;6.80;2.67;;;;;;;;;;10267231;28;20026;-74
2022/09/25 10:39:32;;;;;;;3.67;2.10;;;;;;;;;;10285652;28;20618;-78
2022/09/25 10:44:36;;;;;;;13.32;2.05;;;;;;;;;;10269302;28;20158;-75
2022/09/25 10:55:15;;;;;;;3.10;1.80;;;;;;;;;;10300171;28;20019;-75
2022/09/25 11:00:19;;;;;;;8.48;1.90;;;;;;;;;;10254623;28;20730;-75
2022/09/25 11:05:21;;;;;;;6.20;3.20;;;;;;;;;;10245369;28;20078;-75
2022/09/25 11:10:35;;;;;;;3.10;1.63;;;;;;;;;;10244594;28;20023;-73
2022/09/25 11:15:37;;;;;;;4.72;1.40;;;;;;;;;;10243957;28;20118;-78
2022/09/25 11:20:39;;;;;;;4.50;1.80;;;;;;;;;;10245217;28;20038;-72
2022/09/25 11:25:45;;;;;;;2.55;2.00;;;;;;;;;;10228904;28;20433;-77
2022/09/25 11:30:46;;;;;;;;;;;;;;;;;;10261272;28;20034;-79
2022/09/25 11:36:05;;;;;;;4.10;2.35;;;;;;;;;;10245489;28;19921;-77
2022/09/25 11:41:14;;;;;;;5.13;2.08;;;;;;;;;;10243280;28;20035;-74
2022/09/25 11:46:25;;;;;;;4.05;1.98;;;;;;;;;;10226661;28;20027;-78
2022/09/25 11:51:35;;;;;;;5.18;2.45;;;;;;;;;;10240735;28;20024;-77
2022/09/25 11:56:48;;;;;;;3.90;2.30;;;;;;;;;;10249731;28;20111;-77
2022/09/25 12:02:00;;;;;;;4.15;2.95;;;;;;;;;;10265795;28;20126;-73
2022/09/25 12:07:19;;;;;;;4.88;3.05;;;;;;;;;;10280899;28;20436;-77
2022/09/25 12:12:25;;;;;;;7.28;2.50;;;;;;;;;;10265393;28;20027;-74
2022/09/25 12:17:35;;;;;;;4.78;2.47;;;;;;;;;;10265914;28;20022;-78
2022/09/25 12:22:43;;;;;;;3.28;2.25;;;;;;;;;;10266253;28;20058;-78
2022/09/25 12:27:56;;;;;;;4.28;2.65;;;;;;;;;;10266313;28;20026;-74
2022/09/25 12:32:57;;;;;;;4.47;2.80;;;;;;;;;;10282645;28;20015;-73
2022/09/25 12:38:16;;;;;;;4.53;2.78;;;;;;;;;;10282360;28;20098;-74
2022/09/25 12:43:36;;;;;;;3.58;2.63;;;;;;;;;;10246797;28;20078;-76
2022/09/25 12:48:44;;;;;;;5.00;3.10;;;;;;;;;;10260062;28;20023;-75
2022/09/25 12:53:48;;;;;;;3.70;2.58;;;;;;;;;;10262753;28;20023;-75
2022/09/25 12:59:09;;;;;;;6.40;2.13;;;;;;;;;;10256807;28;20059;-73
2022/09/25 13:04:45;;;;;;;4.50;2.40;;;;;;;;;;10259247;28;20034;-75
2022/09/25 13:09:46;;;;;;;10.68;2.83;;;;;;;;;;10138139;28;20065;-73
2022/09/25 13:14:53;;;;;;;9.27;5.03;;;;;;;;;;10263023;28;20490;-74
2022/09/25 13:20:13;;;;;;;4.53;2.22;;;;;;;;;;10261417;28;20046;-72
2022/09/25 13:25:15;;;;;;;3.72;2.08;;;;;;;;;;10272790;28;20027;-73
2022/09/25 13:30:20;;;;;;;1.80;1.30;;;;;;;;;;10259574;28;20033;-73
2022/09/25 13:35:21;;;;;;;3.40;2.10;;;;;;;;;;10258642;28;20062;-76
2022/09/25 13:40:45;;;;;;;4.95;2.00;;;;;;;;;;10258573;28;20398;-77
2022/09/25 13:45:47;;;;;;;7.22;2.42;;;;;;;;;;10274670;28;20492;-78
2022/09/25 13:50:50;;;;;;;4.53;1.65;;;;;;;;;;10258154;28;20027;-77
2022/09/25 13:55:53;;;;;;;2.35;1.50;;;;;;;;;;10274741;28;20437;-76
2022/09/25 14:00:56;;;;;;;3.00;1.73;;;;;;;;;;10233810;29;20535;-77
2022/09/25 14:06:00;;;;;;;5.57;2.35;;;;;;;;;;10235183;28;20055;-76
2022/09/25 14:11:03;;;;;;;2.83;1.90;;;;;;;;;;10239547;29;20035;-74
2022/09/25 14:16:18;;;;;;;3.55;2.00;;;;;;;;;;10244397;29;20031;-74
2022/09/25 14:21:20;;;;;;;5.65;2.10;;;;;;;;;;10245287;28;20034;-79
2022/09/25 14:26:24;;;;;;;3.33;1.67;;;;;;;;;;10243778;28;20413;-78
2022/09/25 14:31:28;;;;;;;5.15;1.75;;;;;;;;;;10244366;28;20028;-79
2022/09/25 14:36:48;;;;;;;7.80;2.30;;;;;;;;;;10246269;28;20378;-79
2022/09/25 14:41:48;;;;;;;2.63;1.80;;;;;;;;;;10242853;28;20032;-79
2022/09/25 14:46:49;;;;;;;5.10;1.80;;;;;;;;;;10242957;28;20027;-78
2022/09/25 14:51:50;;;;;;;3.30;1.38;;;;;;;;;;10242908;28;20547;-78
2022/09/25 14:56:53;;;;;;;2.92;2.00;;;;;;;;;;10250444;28;20461;-76
2022/09/25 15:01:53;;;;;;;5.03;2.05;;;;;;;;;;10262891;28;20154;-79
2022/09/25 15:07:17;;;;;;;1.93;1.73;;;;;;;;;;10263190;28;20611;-78
2022/09/25 15:12:19;;;;;;;2.80;1.70;;;;;;;;;;10269304;28;20050;-79
2022/09/25 15:17:22;;;;;;;2.60;1.80;;;;;;;;;;10278263;28;20061;-77
2022/09/25 15:22:24;;;;;;;3.70;1.30;;;;;;;;;;10263315;28;20520;-80
2022/09/25 15:27:27;;;;;;;6.25;1.38;;;;;;;;;;10263698;28;20031;-78
2022/09/25 15:32:38;;;;;;;4.68;1.75;;;;;;;;;;10259475;28;20031;-77
2022/09/25 15:37:38;;;;;;;4.18;1.88;;;;;;;;;;10258510;28;20113;-75
2022/09/25 15:42:42;;;;;;;4.60;1.58;;;;;;;;;;10263593;28;20596;-80
2022/09/25 15:47:48;;;;;;;3.33;1.58;;;;;;;;;;10259660;28;20042;-78
2022/09/25 15:52:51;;;;;;;5.88;1.90;;;;;;;;;;10255685;28;20030;-81
2022/09/25 15:57:54;;;;;;;3.58;1.80;;;;;;;;;;10261531;28;20055;-79
2022/09/25 16:08:23;;;;;;;;;;;;;;;;;;10279261;28;20018;-74
2022/09/25 16:13:24;;;;;;;9.25;2.33;;;;;;;;;;10278784;28;19914;-79
2022/09/25 16:18:40;;;;;;;6.80;1.98;;;;;;;;;;10261018;28;20688;-80
2022/09/25 16:23:41;;;;;;;2.75;2.15;;;;;;;;;;10260678;28;20063;-78
2022/09/25 16:28:47;;;;;;;5.97;2.42;;;;;;;;;;10258288;28;20054;-78
2022/09/25 16:33:49;;;;;;;5.28;2.83;;;;;;;;;;10262200;28;20425;-77
2022/09/25 16:39:08;;;;;;;5.22;3.72;;;;;;;;;;10270539;23;20058;-74
2022/09/25 16:44:15;;;;;;;5.28;3.17;;;;;;;;;;10220608;29;20038;-79
2022/09/25 16:49:15;;;;;;;11.10;3.33;;;;;;;;;;10226377;29;20027;-77
2022/09/25 16:54:18;;;;;;;11.90;4.78;;;;;;;;;;10227214;29;20031;-78
2022/09/25 16:59:20;;;;;;;13.82;4.75;;;;;;;;;;10209060;28;20031;-76
2022/09/25 17:04:22;;;;;;;8.30;3.95;;;;;;;;;;10224556;28;20020;-72
2022/09/25 17:09:30;;;;;;;10.73;6.40;;;;;;;;;;10228701;29;20163;-73
2022/09/25 17:14:30;;;;;;;14.93;5.00;;;;;;;;;;10227571;28;20090;-72
2022/09/25 17:19:31;;;;;;;13.20;5.80;;;;;;;;;;10222929;29;20390;-72
2022/09/25 17:24:31;;;;;;;16.33;5.43;;;;;;;;;;10203211;29;20022;-71
2022/09/25 17:29:31;;;;;;;18.95;5.40;;;;;;;;;;10216909;29;20027;-72
2022/09/25 17:34:33;;;;;;;14.88;5.25;;;;;;;;;;10206428;29;20480;-75
2022/09/25 17:39:33;;;;;;;12.82;4.55;;;;;;;;;;10207115;28;20075;-72
2022/09/25 17:44:33;;;;;;;7.72;4.22;;;;;;;;;;10204421;28;20102;-72
2022/09/25 17:49:34;;;;;;;8.18;4.22;;;;;;;;;;10207826;29;20118;-71
2022/09/25 17:54:34;;;;;;;9.13;4.47;;;;;;;;;;10205856;29;20501;-73
2022/09/25 17:59:34;;;;;;;12.38;4.10;;;;;;;;;;10224406;29;20034;-72
2022/09/25 18:04:34;;;;;;;10.43;5.25;;;;;;;;;;10208788;29;20114;-76
2022/09/25 18:09:35;;;;;;;14.40;5.13;;;;;;;;;;10206204;29;20035;-73
2022/09/25 18:14:35;;;;;;;10.23;5.20;;;;;;;;;;10210033;28;20074;-74
2022/09/25 18:24:57;;;;;;;12.90;4.13;;;;;;;;;;10224589;28;20020;-72
2022/09/25 18:29:57;;;;;;;10.07;4.40;;;;;;;;;;10220648;29;20030;-75
2022/09/25 18:34:58;;;;;;;12.48;4.70;;;;;;;;;;10220455;29;20033;-76
2022/09/25 18:39:58;;;;;;;7.40;3.50;;;;;;;;;;10204679;29;20051;-76
2022/09/25 18:44:59;;;;;;;9.60;3.72;;;;;;;;;;10207202;29;20023;-75
2022/09/25 18:50:00;;;;;;;9.68;3.72;;;;;;;;;;10206774;28;20356;-76
2022/09/25 18:55:00;;;;;;;7.82;4.80;;;;;;;;;;10212226;29;20052;-75
2022/09/25 19:00:01;;;;;;;8.25;4.80;;;;;;;;;;10211436;28;20186;-72
2022/09/25 19:05:01;;;;;;;10.23;4.43;;;;;;;;;;10232959;28;20042;-75
2022/09/25 19:10:06;;;;;;;10.73;3.78;;;;;;;;;;10216681;29;20024;-76
2022/09/25 19:15:07;;;;;;;13.52;4.13;;;;;;;;;;10212966;29;20023;-74
2022/09/25 19:20:07;;;;;;;7.47;4.75;;;;;;;;;;10227801;28;20028;-75
2022/09/25 19:25:09;;;;;;;9.50;4.50;;;;;;;;;;10213805;28;20027;-76
2022/09/25 19:30:09;;;;;;;12.15;4.55;;;;;;;;;;10212461;29;20055;-81
2022/09/25 19:35:10;;;;;;;8.68;4.57;;;;;;;;;;10213254;29;20114;-76
2022/09/25 19:45:29;;;;;;;11.85;5.38;;;;;;;;;;10234111;29;20031;-80
2022/09/25 19:50:29;;;;;;;9.13;5.03;;;;;;;;;;10233606;29;20474;-79
2022/09/25 19:55:32;;;;;;;8.13;4.47;;;;;;;;;;10211950;28;20045;-76
2022/09/25 20:00:33;;;;;;;12.90;4.97;;;;;;;;;;10229767;28;20066;-78
2022/09/25 20:05:37;;;;;;;7.53;4.67;;;;;;;;;;10225575;29;20122;-80
2022/09/25 20:10:37;;;;;;;9.20;4.25;;;;;;;;;;10211231;29;20144;-75
2022/09/25 20:15:38;;;;;;;7.63;4.13;;;;;;;;;;10228223;29;20035;-78
2022/09/25 20:20:40;;;;;;;5.80;4.00;;;;;;;;;;10227426;29;20130;-79
2022/09/25 20:25:40;;;;;;;7.20;3.80;;;;;;;;;;10212688;29;20023;-83
2022/09/25 20:30:40;;;;;;;6.50;4.25;;;;;;;;;;10227871;28;20035;-73
2022/09/25 20:35:41;;;;;;;9.82;4.22;;;;;;;;;;10225240;29;20035;-81
2022/09/25 20:40:41;;;;;;;9.10;4.15;;;;;;;;;;10228855;28;20058;-79
2022/09/25 20:45:41;;;;;;;8.05;3.78;;;;;;;;;;10213453;28;20091;-80
2022/09/25 20:50:47;;;;;;;10.25;3.92;;;;;;;;;;10230082;28;20501;-80
2022/09/25 20:55:48;;;;;;;13.45;4.13;;;;;;;;;;10208818;29;20545;-77
2022/09/25 21:00:48;;;;;;;10.47;3.30;;;;;;;;;;10211036;29;20038;-76
2022/09/25 21:05:48;;;;;;;5.55;3.80;;;;;;;;;;10211514;29;20093;-79
2022/09/25 21:10:49;;;;;;;9.38;4.43;;;;;;;;;;10227248;28;20058;-76
2022/09/25 21:15:49;;;;;;;14.23;4.30;;;;;;;;;;10209865;28;20028;-78
2022/09/25 21:20:49;;;;;;;8.23;4.30;;;;;;;;;;10223395;29;20038;-75
2022/09/25 21:25:51;;;;;;;11.60;4.30;;;;;;;;;;10209301;29;20026;-77
2022/09/25 21:30:51;;;;;;;6.55;3.63;;;;;;;;;;10244352;28;20027;-73
2022/09/25 21:35:51;;;;;;;6.95;3.75;;;;;;;;;;10211007;29;20571;-78
2022/09/25 21:41:00;;;;;;;10.50;3.65;;;;;;;;;;10209571;29;20075;-74
2022/09/25 21:46:02;;;;;;;10.20;4.05;;;;;;;;;;10224454;29;20051;-73
2022/09/25 21:51:03;;;;;;;5.22;3.50;;;;;;;;;;10212757;29;20135;-75
2022/09/25 21:56:04;;;;;;;5.43;3.50;;;;;;;;;;10209871;29;20085;-74
2022/09/25 22:01:15;;;;;;;5.50;3.33;;;;;;;;;;10216306;28;20060;-78
2022/09/25 22:06:17;;;;;;;8.75;3.53;;;;;;;;;;10207659;29;20500;-74
2022/09/25 22:11:18;;;;;;;8.35;3.95;;;;;;;;;;10209255;29;20035;-78
2022/09/25 22:16:23;;;;;;;5.78;4.28;;;;;;;;;;10206472;29;20042;-79
2022/09/25 22:21:24;;;;;;;6.65;4.00;;;;;;;;;;10205292;29;20027;-79
2022/09/25 22:26:25;;;;;;;6.78;3.83;;;;;;;;;;10224785;28;20023;-79
2022/09/25 22:31:27;;;;;;;13.82;4.68;;;;;;;;;;10214878;29;20026;-75
2022/09/25 22:36:27;;;;;;;5.13;3.63;;;;;;;;;;10215567;29;20516;-78
2022/09/25 22:41:27;;;;;;;8.55;4.38;;;;;;;;;;10234362;28;20050;-76
2022/09/25 22:46:28;;;;;;;7.35;4.30;;;;;;;;;;10231579;29;20027;-75
2022/09/25 22:51:28;;;;;;;7.53;4.63;;;;;;;;;;10229110;29;20078;-75
2022/09/25 22:56:29;;;;;;;8.67;4.40;;;;;;;;;;10213468;29;20473;-76
2022/09/25 23:01:32;;;;;;;12.30;4.57;;;;;;;;;;10227039;29;20276;-75
2022/09/25 23:06:33;;;;;;;6.50;4.03;;;;;;;;;;10231949;29;20123;-81
2022/09/25 23:11:33;;;;;;;7.55;4.10;;;;;;;;;;10231112;29;20482;-79
2022/09/25 23:16:34;;;;;;;8.40;4.72;;;;;;;;;;10228525;29;20023;-78
2022/09/25 23:21:34;;;;;;;6.20;4.80;;;;;;;;;;10228551;29;20114;-75
2022/09/25 23:26:34;;;;;;;10.45;3.95;;;;;;;;;;10232442;29;20023;-79
2022/09/25 23:31:35;;;;;;;8.65;4.15;;;;;;;;;;10212035;29;20027;-76
2022/09/25 23:36:35;;;;;;;6.65;3.40;;;;;;;;;;10225981;29;20023;-78
2022/09/25 23:41:37;;;;;;;6.55;3.70;;;;;;;;;;10210316;29;20066;-79
2022/09/25 23:46:38;;;;;;;5.80;3.33;;;;;;;;;;10211702;29;20023;-75
2022/09/25 23:51:39;;;;;;;7.20;3.42;;;;;;;;;;10229739;29;20062;-81
2022/09/25 23:56:40;;;;;;;8.67;3.90;;;;;;;;;;10212008;29;20031;-79
